createdAt,value
2022-11-23T00:02:08.611Z,5.32
2022-11-23T00:04:45.686Z,5.31
2022-11-23T00:07:19.091Z,5.32
2022-11-23T00:09:52.595Z,5.32
2022-11-23T00:12:26.097Z,5.31
2022-11-23T00:14:59.369Z,5.32
2022-11-23T00:17:32.679Z,5.29
2022-11-23T00:20:06.468Z,5.29
2022-11-23T00:22:39.685Z,5.29
2022-11-23T00:25:13.310Z,5.28
2022-11-23T00:27:46.997Z,5.27
2022-11-23T00:30:21.307Z,5.27
2022-11-23T00:32:55.781Z,5.26
2022-11-23T00:35:29.242Z,5.26
2022-11-23T00:38:02.420Z,5.26
2022-11-23T00:40:35.924Z,5.27
2022-11-23T00:43:12.596Z,5.27
2022-11-23T00:45:46.007Z,5.27
2022-11-23T00:48:19.863Z,5.28
2022-11-23T00:50:53.184Z,5.29
2022-11-23T00:53:26.660Z,5.29
2022-11-23T00:56:00.155Z,5.32
2022-11-23T00:58:34.186Z,5.32
2022-11-23T01:01:12.226Z,5.33
2022-11-23T01:03:47.446Z,5.35
2022-11-23T01:06:22.936Z,5.34
2022-11-23T01:09:00.147Z,5.34
2022-11-23T01:11:34.851Z,5.34
2022-11-23T01:14:08.008Z,5.35
2022-11-23T01:16:43.484Z,5.35
2022-11-23T01:19:19.138Z,5.34
2022-11-23T01:22:42.503Z,5.34
2022-11-23T01:25:46.758Z,5.35
2022-11-23T01:28:20.053Z,5.36
2022-11-23T01:30:53.228Z,5.35
2022-11-23T01:33:31.638Z,5.35
2022-11-23T01:36:12.363Z,5.35
2022-11-23T01:38:46.767Z,5.35
2022-11-23T01:41:23.069Z,5.35
2022-11-23T01:44:33.100Z,5.35
2022-11-23T01:47:09.110Z,5.33
2022-11-23T01:49:47.162Z,5.34
2022-11-23T01:52:23.462Z,5.32
2022-11-23T01:55:08.635Z,5.32
2022-11-23T01:57:45.630Z,5.33
2022-11-23T02:00:19.161Z,5.32
2022-11-23T02:02:56.960Z,5.34
2022-11-23T02:05:36.091Z,5.34
2022-11-23T02:08:12.272Z,5.36
2022-11-23T02:10:45.792Z,5.37
2022-11-23T02:13:18.924Z,5.38
2022-11-23T02:15:54.462Z,5.38
2022-11-23T02:18:30.856Z,5.40
2022-11-23T02:21:05.517Z,5.40
2022-11-23T02:23:48.244Z,5.40
2022-11-23T02:26:26.308Z,5.41
2022-11-23T02:29:05.937Z,5.41
2022-11-23T02:31:39.576Z,5.42
2022-11-23T02:34:15.452Z,5.43
2022-11-23T02:36:52.276Z,5.42
2022-11-23T02:39:32.490Z,5.44
2022-11-23T02:42:07.789Z,5.45
2022-11-23T02:44:48.815Z,5.46
2022-11-23T02:47:22.011Z,5.48
2022-11-23T02:49:55.406Z,5.47
2022-11-23T02:52:28.769Z,5.48
2022-11-23T02:55:04.096Z,5.49
2022-11-23T02:57:38.337Z,5.50
2022-11-23T03:00:13.791Z,5.52
2022-11-23T03:03:22.482Z,5.53
2022-11-23T03:06:11.998Z,5.54
2022-11-23T03:08:45.276Z,5.56
2022-11-23T03:11:19.088Z,5.59
2022-11-23T03:13:53.585Z,5.61
2022-11-23T03:16:50.509Z,5.62
2022-11-23T03:19:49.542Z,5.63
2022-11-23T03:23:08.544Z,5.63
2022-11-23T03:26:00.210Z,5.65
2022-11-23T03:28:39.590Z,5.70
2022-11-23T03:31:13.427Z,5.71
2022-11-23T03:33:51.276Z,5.74
2022-11-23T03:36:24.950Z,5.77
2022-11-23T03:38:58.067Z,5.80
2022-11-23T03:41:43.620Z,5.83
2022-11-23T03:44:16.942Z,5.85
2022-11-23T03:46:52.103Z,5.89
2022-11-23T03:49:30.545Z,5.91
2022-11-23T03:52:04.462Z,5.95
2022-11-23T03:54:39.009Z,5.97
2022-11-23T03:57:12.664Z,5.99
2022-11-23T03:59:46.411Z,6.03
2022-11-23T04:02:20.519Z,6.05
2022-11-23T04:05:07.613Z,6.07
2022-11-23T04:08:06.619Z,6.07
2022-11-23T04:10:45.037Z,6.13
2022-11-23T04:13:25.551Z,6.15
2022-11-23T04:15:58.954Z,6.18
2022-11-23T04:18:32.198Z,6.21
2022-11-23T04:21:05.667Z,6.23
2022-11-23T04:23:38.924Z,6.25
2022-11-23T04:26:14.252Z,6.28
2022-11-23T04:28:48.780Z,6.30
2022-11-23T04:31:22.079Z,6.31
2022-11-23T04:34:04.458Z,6.35
2022-11-23T04:36:40.965Z,6.37
2022-11-23T04:39:16.899Z,6.41
2022-11-23T04:42:07.463Z,6.42
2022-11-23T04:44:41.311Z,6.44
2022-11-23T04:47:15.088Z,6.46
2022-11-23T04:49:53.613Z,6.51
2022-11-23T04:52:32.832Z,6.53
2022-11-23T04:55:06.503Z,6.57
2022-11-23T04:57:40.283Z,6.59
2022-11-23T05:00:17.218Z,6.62
2022-11-23T05:02:54.634Z,6.65
2022-11-23T05:05:31.790Z,6.68
2022-11-23T05:08:08.629Z,6.72
2022-11-23T05:11:04.720Z,6.74
2022-11-23T05:13:38.304Z,6.77
2022-11-23T05:16:11.549Z,6.80
2022-11-23T05:18:47.137Z,6.82
2022-11-23T05:21:20.794Z,6.84
2022-11-23T05:23:54.963Z,6.86
2022-11-23T05:26:30.511Z,6.88
2022-11-23T05:29:03.849Z,6.92
2022-11-23T05:31:41.345Z,6.94
2022-11-23T05:34:18.099Z,6.96
2022-11-23T05:36:52.383Z,6.98
2022-11-23T05:39:26.830Z,7.00
2022-11-23T05:42:00.252Z,7.03
2022-11-23T05:44:46.082Z,7.06
2022-11-23T05:47:25.153Z,7.09
2022-11-23T05:49:58.771Z,7.11
2022-11-23T05:52:33.363Z,7.12
2022-11-23T05:55:07.391Z,7.13
2022-11-23T05:57:43.534Z,7.17
2022-11-23T06:00:19.516Z,7.19
2022-11-23T06:02:54.910Z,7.22
2022-11-23T06:05:29.433Z,7.24
2022-11-23T06:08:02.621Z,7.27
2022-11-23T06:10:36.016Z,7.27
2022-11-23T06:13:09.044Z,7.30
2022-11-23T06:15:42.272Z,7.29
2022-11-23T06:18:16.845Z,7.33
2022-11-23T06:20:53.749Z,7.37
2022-11-23T06:23:26.910Z,7.38
2022-11-23T06:26:02.868Z,7.40
2022-11-23T06:28:38.571Z,7.44
2022-11-23T06:31:12.315Z,7.45
2022-11-23T06:33:48.334Z,7.47
2022-11-23T06:36:21.378Z,7.48
2022-11-23T06:38:56.248Z,7.51
2022-11-23T06:41:32.634Z,7.54
2022-11-23T06:44:07.284Z,7.55
2022-11-23T06:46:44.976Z,7.56
2022-11-23T06:49:20.729Z,7.59
2022-11-23T06:52:09.665Z,7.61
2022-11-23T06:54:43.002Z,7.62
2022-11-23T06:57:16.115Z,7.66
2022-11-23T06:59:49.485Z,7.67
2022-11-23T07:02:23.929Z,7.70
2022-11-23T07:04:57.230Z,7.73
2022-11-23T07:07:30.867Z,7.70
2022-11-23T07:10:12.279Z,7.76
2022-11-23T07:13:10.116Z,7.80
2022-11-23T07:15:46.260Z,7.83
2022-11-23T07:18:19.413Z,7.86
2022-11-23T07:20:58.559Z,7.86
2022-11-23T07:23:32.231Z,7.90
2022-11-23T07:26:06.773Z,7.93
2022-11-23T07:28:41.388Z,7.94
2022-11-23T07:31:16.475Z,7.98
2022-11-23T07:33:49.938Z,8.00
2022-11-23T07:36:23.097Z,8.03
2022-11-23T07:38:56.701Z,8.04
2022-11-23T07:41:30.009Z,8.06
2022-11-23T07:44:29.115Z,8.10
2022-11-23T07:47:07.029Z,8.10
2022-11-23T07:49:40.001Z,8.14
2022-11-23T07:52:13.487Z,8.16
2022-11-23T07:54:46.638Z,8.19
2022-11-23T07:57:27.200Z,8.21
2022-11-23T08:00:03.789Z,8.24
2022-11-23T08:03:25.673Z,8.27
2022-11-23T08:06:26.108Z,8.31
2022-11-23T08:08:47.509Z,8.34
2022-11-23T08:11:30.732Z,8.36
2022-11-23T08:14:03.905Z,8.40
2022-11-23T08:16:37.295Z,8.43
2022-11-23T08:19:10.809Z,8.46
2022-11-23T08:21:50.215Z,8.49
2022-11-23T08:24:23.272Z,8.52
2022-11-23T08:26:57.538Z,8.56
2022-11-23T08:29:30.769Z,8.58
2022-11-23T08:32:06.715Z,8.61
2022-11-23T08:34:39.825Z,8.61
2022-11-23T08:37:12.973Z,8.64
2022-11-23T08:39:46.669Z,8.67
2022-11-23T08:42:22.067Z,8.71
2022-11-23T08:44:55.202Z,8.75
2022-11-23T08:47:28.596Z,8.78
2022-11-23T08:50:01.613Z,8.82
2022-11-23T08:52:35.084Z,8.85
2022-11-23T08:55:09.105Z,8.87
2022-11-23T08:57:42.301Z,8.89
2022-11-23T09:00:18.157Z,8.91
2022-11-23T09:02:52.621Z,8.95
2022-11-23T09:05:26.027Z,9.00
2022-11-23T09:08:00.918Z,9.04
2022-11-23T09:10:34.075Z,9.09
2022-11-23T09:13:07.177Z,9.13
2022-11-23T09:15:40.466Z,9.17
2022-11-23T09:18:13.906Z,9.23
2022-11-23T09:20:46.893Z,9.27
2022-11-23T09:23:22.939Z,9.32
2022-11-23T09:25:55.895Z,9.35
2022-11-23T09:28:29.212Z,9.38
2022-11-23T09:31:06.181Z,9.39
2022-11-23T09:33:39.246Z,9.41
2022-11-23T09:36:12.594Z,9.42
2022-11-23T09:38:56.253Z,9.44
2022-11-23T09:42:02.255Z,9.47
2022-11-23T09:44:49.499Z,9.51
2022-11-23T09:47:40.529Z,9.55
2022-11-23T09:50:23.504Z,9.59
2022-11-23T09:52:59.281Z,9.63
2022-11-23T09:55:39.579Z,9.67
2022-11-23T09:58:18.007Z,9.72
2022-11-23T10:00:57.397Z,9.75
2022-11-23T10:03:34.537Z,9.78
2022-11-23T10:06:20.816Z,9.79
2022-11-23T10:09:08.089Z,9.80
2022-11-23T10:12:05.519Z,9.85
2022-11-23T10:14:53.220Z,9.91
2022-11-23T10:17:42.554Z,9.94
2022-11-23T10:20:35.613Z,9.96
2022-11-23T10:23:19.830Z,10.02
2022-11-23T10:25:54.886Z,10.03
2022-11-23T10:28:31.700Z,10.05
2022-11-23T10:31:14.521Z,10.08
2022-11-23T10:33:56.864Z,10.11
2022-11-23T10:36:28.290Z,10.15
2022-11-23T10:39:03.783Z,10.17
2022-11-23T10:41:36.731Z,10.21
2022-11-23T10:44:28.533Z,10.24
2022-11-23T10:47:01.472Z,10.28
2022-11-23T10:49:40.192Z,10.32
2022-11-23T10:52:34.133Z,10.36
2022-11-23T10:55:12.125Z,10.40
2022-11-23T10:57:48.273Z,10.42
2022-11-23T11:00:30.228Z,10.46
2022-11-23T11:03:22.595Z,10.50
2022-11-23T11:06:14.658Z,10.51
2022-11-23T11:08:55.801Z,10.55
2022-11-23T11:11:33.829Z,10.59
2022-11-23T11:14:08.524Z,10.62
2022-11-23T11:16:50.864Z,10.62
2022-11-23T11:19:28.123Z,10.63
2022-11-23T11:22:04.175Z,10.65
2022-11-23T11:24:45.386Z,10.66
2022-11-23T11:27:22.695Z,10.72
2022-11-23T11:30:00.652Z,10.74
2022-11-23T11:32:43.389Z,10.78
2022-11-23T11:35:21.340Z,10.82
2022-11-23T11:37:57.653Z,10.83
2022-11-23T11:40:35.046Z,10.82
2022-11-23T11:43:13.318Z,10.81
2022-11-23T11:48:46.765Z,10.82
2022-11-23T11:51:29.611Z,10.79
2022-11-23T11:54:13.030Z,10.78
2022-11-23T11:56:48.253Z,10.80
2022-11-23T11:59:28.671Z,10.79
2022-11-23T12:02:16.138Z,10.82
2022-11-23T12:04:56.849Z,10.81
2022-11-23T12:07:34.699Z,10.83
2022-11-23T12:10:17.033Z,10.85
2022-11-23T12:12:49.944Z,10.86
2022-11-23T12:15:48.223Z,10.88
2022-11-23T12:19:01.274Z,10.91
2022-11-23T12:21:54.505Z,10.90
2022-11-23T12:24:43.480Z,10.93
2022-11-23T12:27:27.177Z,10.95
2022-11-23T12:30:16.137Z,10.97
2022-11-23T12:33:00.660Z,10.98
2022-11-23T12:35:56.165Z,10.99
2022-11-23T12:38:37.101Z,10.99
2022-11-23T12:41:23.598Z,11.04
2022-11-23T12:44:18.265Z,11.03
2022-11-23T12:46:56.190Z,11.04
2022-11-23T12:49:40.365Z,11.06
2022-11-23T12:52:32.623Z,11.07
2022-11-23T12:55:19.815Z,11.06
2022-11-23T12:58:01.573Z,11.08
2022-11-23T13:00:40.188Z,11.07
2022-11-23T13:03:52.743Z,11.07
2022-11-23T13:07:37.485Z,11.06
2022-11-23T13:10:30.963Z,11.06
2022-11-23T13:13:25.176Z,11.05
2022-11-23T13:16:28.486Z,11.07
2022-11-23T13:19:19.418Z,11.08
2022-11-23T13:21:52.508Z,11.07
2022-11-23T13:24:36.504Z,11.07
2022-11-23T13:27:44.417Z,11.08
2022-11-23T13:30:52.059Z,11.06
2022-11-23T13:33:40.018Z,11.08
2022-11-23T13:37:10.581Z,11.07
2022-11-23T13:40:04.707Z,11.09
2022-11-23T13:42:37.779Z,11.09
2022-11-23T13:45:30.692Z,11.08
2022-11-23T13:48:48.983Z,11.08
2022-11-23T13:51:13.080Z,11.07
2022-11-23T13:53:52.523Z,11.07
2022-11-23T13:56:35.320Z,11.06
2022-11-23T13:59:32.604Z,11.04
2022-11-23T14:02:29.718Z,11.05
2022-11-23T14:05:53.678Z,11.04
2022-11-23T14:08:27.691Z,11.03
2022-11-23T14:11:02.197Z,11.03
2022-11-23T14:13:37.064Z,11.02
2022-11-23T14:16:15.113Z,11.02
2022-11-23T14:19:02.552Z,11.00
2022-11-23T14:21:55.404Z,10.99
2022-11-23T14:24:51.658Z,10.95
2022-11-23T14:27:47.351Z,10.91
2022-11-23T14:30:41.271Z,10.90
2022-11-23T14:33:44.425Z,10.89
2022-11-23T14:36:30.724Z,10.90
2022-11-23T14:39:28.424Z,10.89
2022-11-23T14:42:05.140Z,10.87
2022-11-23T14:44:41.063Z,10.88
2022-11-23T14:47:15.123Z,10.86
2022-11-23T14:49:54.373Z,10.87
2022-11-23T14:52:31.323Z,10.86
2022-11-23T14:55:07.473Z,10.85
2022-11-23T14:57:49.439Z,10.84
2022-11-23T15:00:37.209Z,10.83
2022-11-23T15:03:48.951Z,10.82
2022-11-23T15:06:14.524Z,10.81
2022-11-23T15:08:54.064Z,10.79
2022-11-23T15:11:30.612Z,10.79
2022-11-23T15:14:03.680Z,10.78
2022-11-23T15:16:43.392Z,10.73
2022-11-23T15:19:30.127Z,10.71
2022-11-23T15:22:03.204Z,10.68
2022-11-23T15:24:36.092Z,10.65
2022-11-23T15:27:17.964Z,10.61
2022-11-23T15:29:57.657Z,10.58
2022-11-23T15:32:34.384Z,10.58
2022-11-23T15:35:14.029Z,10.53
2022-11-23T15:37:50.328Z,10.51
2022-11-23T15:40:24.120Z,10.52
2022-11-23T15:42:57.646Z,10.51
2022-11-23T15:45:58.659Z,10.51
2022-11-23T15:48:35.336Z,10.50
2022-11-23T15:51:10.056Z,10.50
2022-11-23T15:53:51.504Z,10.50
2022-11-23T15:56:28.783Z,10.50
2022-11-23T15:59:05.298Z,10.49
2022-11-23T16:01:41.654Z,10.51
2022-11-23T16:04:30.412Z,10.50
2022-11-23T16:07:17.345Z,10.50
2022-11-23T16:09:53.107Z,10.51
2022-11-23T16:12:29.496Z,10.50
2022-11-23T16:15:41.699Z,10.49
2022-11-23T16:18:25.789Z,10.48
2022-11-23T16:21:01.579Z,10.48
2022-11-23T16:23:49.700Z,10.47
2022-11-23T16:26:31.405Z,10.48
2022-11-23T16:29:06.084Z,10.46
2022-11-23T16:31:42.307Z,10.47
2022-11-23T16:34:19.467Z,10.47
2022-11-23T16:36:53.268Z,10.47
2022-11-23T16:39:27.913Z,10.44
2022-11-23T16:42:00.773Z,10.44
2022-11-23T16:44:38.734Z,10.44
2022-11-23T16:47:25.176Z,10.44
2022-11-23T16:49:58.924Z,10.42
2022-11-23T16:52:33.421Z,10.42
2022-11-23T16:55:07.466Z,10.41
2022-11-23T16:57:41.591Z,10.41
2022-11-23T17:00:21.055Z,10.41
2022-11-23T17:02:54.102Z,10.38
2022-11-23T17:05:27.066Z,10.37
2022-11-23T17:08:00.166Z,10.36
2022-11-23T17:10:34.154Z,10.35
2022-11-23T17:13:21.836Z,10.34
2022-11-23T17:15:55.699Z,10.34
2022-11-23T17:18:28.643Z,10.33
2022-11-23T17:21:01.626Z,10.33
2022-11-23T17:23:34.869Z,10.32
2022-11-23T17:26:30.047Z,10.33
2022-11-23T17:29:06.146Z,10.32
2022-11-23T17:31:43.708Z,10.32
2022-11-23T17:34:17.452Z,10.31
2022-11-23T17:36:53.445Z,10.31
2022-11-23T17:39:28.709Z,10.31
2022-11-23T17:42:05.111Z,10.30
2022-11-23T17:44:41.100Z,10.32
2022-11-23T17:47:29.812Z,10.32
2022-11-23T17:50:03.417Z,10.32
2022-11-23T17:52:36.565Z,10.33
2022-11-23T17:55:12.675Z,10.33
2022-11-23T17:57:46.697Z,10.34
2022-11-23T18:00:23.752Z,10.33
2022-11-23T18:02:56.765Z,10.34
2022-11-23T18:05:30.080Z,10.35
2022-11-23T18:08:03.076Z,10.33
2022-11-23T18:10:35.910Z,10.33
2022-11-23T18:13:10.126Z,10.32
2022-11-23T18:15:45.354Z,10.32
2022-11-23T18:18:19.963Z,10.32
2022-11-23T18:20:53.174Z,10.32
2022-11-23T18:23:26.188Z,10.32
2022-11-23T18:26:03.581Z,10.33
2022-11-23T18:28:36.466Z,10.33
2022-11-23T18:31:10.852Z,10.32
2022-11-23T18:33:43.997Z,10.32
2022-11-23T18:36:17.649Z,10.31
2022-11-23T18:38:50.800Z,10.31
2022-11-23T18:41:23.860Z,10.30
2022-11-23T18:43:56.749Z,10.32
2022-11-23T18:46:29.659Z,10.31
2022-11-23T18:49:02.656Z,10.31
2022-11-23T18:51:37.218Z,10.31
2022-11-23T18:54:10.352Z,10.31
2022-11-23T18:56:43.340Z,10.31
2022-11-23T18:59:42.016Z,10.32
2022-11-23T19:02:10.045Z,10.31
2022-11-23T19:04:43.286Z,10.31
2022-11-23T19:07:16.254Z,10.31
2022-11-23T19:09:50.877Z,10.30
2022-11-23T19:12:24.066Z,10.32
2022-11-23T19:14:57.030Z,10.31
2022-11-23T19:17:30.006Z,10.31
2022-11-23T19:20:04.003Z,10.30
2022-11-23T19:22:37.228Z,10.30
2022-11-23T19:25:11.649Z,10.29
2022-11-23T19:27:44.554Z,10.30
2022-11-23T19:30:19.348Z,10.29
2022-11-23T19:32:52.169Z,10.27
2022-11-23T19:35:25.172Z,10.26
2022-11-23T19:37:58.638Z,10.26
2022-11-23T19:40:32.479Z,10.26
2022-11-23T19:43:05.395Z,10.27
2022-11-23T19:45:38.260Z,10.27
2022-11-23T19:48:11.723Z,10.26
2022-11-23T19:50:44.570Z,10.25
2022-11-23T19:53:17.550Z,10.26
2022-11-23T19:55:50.380Z,10.26
2022-11-23T19:58:23.505Z,10.27
2022-11-23T20:01:02.253Z,10.26
2022-11-23T20:03:38.417Z,10.26
2022-11-23T20:06:17.522Z,10.27
2022-11-23T20:08:54.984Z,10.26
2022-11-23T20:11:29.752Z,10.24
2022-11-23T20:14:03.131Z,10.24
2022-11-23T20:16:36.279Z,10.24
2022-11-23T20:19:10.496Z,10.24
2022-11-23T20:21:43.555Z,10.24
2022-11-23T20:24:17.086Z,10.23
2022-11-23T20:26:49.980Z,10.22
2022-11-23T20:29:23.160Z,10.23
2022-11-23T20:31:56.657Z,10.22
2022-11-23T20:34:31.348Z,10.22
2022-11-23T20:37:05.956Z,10.22
2022-11-23T20:39:39.030Z,10.22
2022-11-23T20:42:14.874Z,10.21
2022-11-23T20:44:47.844Z,10.21
2022-11-23T20:47:20.700Z,10.20
2022-11-23T20:49:53.635Z,10.20
2022-11-23T20:52:28.757Z,10.18
2022-11-23T20:55:02.187Z,10.19
2022-11-23T20:57:38.419Z,10.18
2022-11-23T21:00:16.977Z,10.18
2022-11-23T21:02:53.428Z,10.17
2022-11-23T21:05:26.487Z,10.17
2022-11-23T21:08:02.701Z,10.16
2022-11-23T21:11:22.820Z,10.17
2022-11-23T21:14:48.945Z,10.17
2022-11-23T21:17:55.230Z,10.15
2022-11-23T21:20:59.487Z,10.16
2022-11-23T21:23:54.035Z,10.15
2022-11-23T21:26:28.658Z,10.15
2022-11-23T21:29:02.987Z,10.13
2022-11-23T21:31:36.452Z,10.14
2022-11-23T21:34:12.436Z,10.12
2022-11-23T21:36:45.328Z,10.10
2022-11-23T21:39:18.812Z,10.08
2022-11-23T21:41:53.753Z,10.07
2022-11-23T21:44:26.624Z,10.03
2022-11-23T21:46:59.632Z,10.03
2022-11-23T21:49:32.731Z,9.98
2022-11-23T21:52:09.073Z,9.95
2022-11-23T21:54:47.323Z,9.93
2022-11-23T21:57:22.226Z,9.89
2022-11-23T21:59:55.046Z,9.86
2022-11-23T22:02:28.338Z,9.83
2022-11-23T22:05:04.218Z,9.80
2022-11-23T22:07:37.753Z,9.78
2022-11-23T22:10:11.755Z,9.74
2022-11-23T22:12:44.764Z,9.72
2022-11-23T22:15:17.909Z,9.68
2022-11-23T22:17:53.228Z,9.65
2022-11-23T22:20:26.309Z,9.61
2022-11-23T22:22:59.332Z,9.59
2022-11-23T22:25:33.489Z,9.57
2022-11-23T22:28:06.769Z,9.52
2022-11-23T22:30:39.703Z,9.52
2022-11-23T22:33:13.636Z,9.49
2022-11-23T22:35:46.444Z,9.47
2022-11-23T22:38:19.501Z,9.42
2022-11-23T22:40:52.290Z,9.41
2022-11-23T22:43:25.098Z,9.39
2022-11-23T22:46:05.378Z,9.37
2022-11-23T22:48:41.911Z,9.33
2022-11-23T22:51:16.622Z,9.32
2022-11-23T22:53:50.140Z,9.31
2022-11-23T22:56:23.823Z,9.29
2022-11-23T22:58:56.993Z,9.26
2022-11-23T23:01:32.082Z,9.26
2022-11-23T23:04:05.662Z,9.23
2022-11-23T23:06:39.095Z,9.21
2022-11-23T23:09:13.258Z,9.18
2022-11-23T23:11:46.170Z,9.16
2022-11-23T23:14:19.054Z,9.13
2022-11-23T23:16:52.785Z,9.09
2022-11-23T23:19:26.730Z,9.06
2022-11-23T23:21:59.631Z,9.02
2022-11-23T23:24:32.978Z,8.98
2022-11-23T23:27:06.319Z,8.94
2022-11-23T23:29:39.759Z,8.91
2022-11-23T23:32:13.625Z,8.85
2022-11-23T23:34:46.418Z,8.81
2022-11-23T23:37:23.602Z,8.76
2022-11-23T23:39:57.254Z,8.72
2022-11-23T23:42:30.149Z,8.65
2022-11-23T23:45:04.550Z,8.59
2022-11-23T23:47:37.776Z,8.54
2022-11-23T23:50:12.446Z,8.48
2022-11-23T23:52:45.465Z,8.43
2022-11-23T23:55:18.474Z,8.39
2022-11-23T23:57:51.223Z,8.33
